createdAt,value
2023-03-08T00:01:05.707Z,75.33
2023-03-08T00:03:35.350Z,74.46
2023-03-08T00:06:06.113Z,75.01
2023-03-08T00:08:34.530Z,75.60
2023-03-08T00:11:07.037Z,75.25
2023-03-08T00:13:36.096Z,76.77
2023-03-08T00:16:06.787Z,76.03
2023-03-08T00:18:38.010Z,77.17
2023-03-08T00:21:08.278Z,78.04
2023-03-08T00:23:36.979Z,77.41
2023-03-08T00:26:06.444Z,77.18
2023-03-08T00:28:35.259Z,78.46
2023-03-08T00:31:06.268Z,78.95
2023-03-08T00:33:37.208Z,78.77
2023-03-08T00:36:07.137Z,78.29
2023-03-08T00:38:37.487Z,78.37
2023-03-08T00:41:06.261Z,78.77
2023-03-08T00:43:35.427Z,79.06
2023-03-08T00:46:03.572Z,78.49
2023-03-08T00:48:31.633Z,79.15
2023-03-08T00:51:01.705Z,79.34
2023-03-08T00:53:30.332Z,79.44
2023-03-08T00:55:59.546Z,79.63
2023-03-08T00:58:30.207Z,79.31
2023-03-08T01:00:59.200Z,79.59
2023-03-08T01:03:27.950Z,80.33
2023-03-08T01:05:57.858Z,79.98
2023-03-08T01:08:28.544Z,80.53
2023-03-08T01:10:58.928Z,80.42
2023-03-08T01:13:28.410Z,80.08
2023-03-08T01:15:57.087Z,80.08
2023-03-08T01:18:25.888Z,80.05
2023-03-08T01:20:58.398Z,81.26
2023-03-08T01:23:28.706Z,79.94
2023-03-08T01:26:00.898Z,79.51
2023-03-08T01:28:31.745Z,79.44
2023-03-08T01:31:03.645Z,78.79
2023-03-08T01:33:31.917Z,77.66
2023-03-08T01:36:00.594Z,77.55
2023-03-08T01:38:30.208Z,80.93
2023-03-08T01:40:58.785Z,81.70
2023-03-08T01:43:29.535Z,80.56
2023-03-08T01:46:12.118Z,80.11
2023-03-08T01:48:45.665Z,80.26
2023-03-08T01:51:20.247Z,79.92
2023-03-08T01:53:50.392Z,79.21
2023-03-08T01:56:20.916Z,78.56
2023-03-08T01:58:51.564Z,78.19
2023-03-08T02:01:22.140Z,77.73
2023-03-08T02:03:50.641Z,78.08
2023-03-08T02:06:20.571Z,78.12
2023-03-08T02:08:50.270Z,77.51
2023-03-08T02:11:20.987Z,77.67
2023-03-08T02:13:51.063Z,77.97
2023-03-08T02:16:19.935Z,78.42
2023-03-08T02:18:54.143Z,78.26
2023-03-08T02:21:22.435Z,79.58
2023-03-08T02:23:52.470Z,79.39
2023-03-08T02:26:21.351Z,78.92
2023-03-08T02:28:50.162Z,78.75
2023-03-08T02:31:18.585Z,78.48
2023-03-08T02:33:46.807Z,77.66
2023-03-08T02:36:14.888Z,77.45
2023-03-08T02:38:43.162Z,78.06
2023-03-08T02:41:12.723Z,78.97
2023-03-08T02:43:41.326Z,80.28
2023-03-08T02:46:12.779Z,81.57
2023-03-08T02:48:40.906Z,82.38
2023-03-08T02:51:09.208Z,82.81
2023-03-08T02:53:37.301Z,83.97
2023-03-08T02:56:06.037Z,85.71
2023-03-08T02:58:35.596Z,87.23
2023-03-08T03:01:03.730Z,88.24
2023-03-08T03:03:32.568Z,88.64
2023-03-08T03:06:01.081Z,89.47
2023-03-08T03:08:31.522Z,90.30
2023-03-08T03:10:59.728Z,92.99
2023-03-08T03:13:28.157Z,94.37
2023-03-08T03:15:58.207Z,93.48
2023-03-08T03:18:26.386Z,90.98
2023-03-08T03:20:54.490Z,90.82
2023-03-08T03:23:22.530Z,89.55
2023-03-08T03:25:50.924Z,87.74
2023-03-08T03:28:19.535Z,86.96
2023-03-08T03:30:47.733Z,86.41
2023-03-08T03:33:17.583Z,86.15
2023-03-08T03:35:45.765Z,85.36
2023-03-08T03:38:13.988Z,84.38
2023-03-08T03:40:42.195Z,84.16
2023-03-08T03:43:10.287Z,84.27
2023-03-08T03:45:38.296Z,85.92
2023-03-08T03:48:06.798Z,91.01
2023-03-08T03:50:36.377Z,93.08
2023-03-08T03:53:04.390Z,93.99
2023-03-08T03:55:32.764Z,94.96
2023-03-08T03:58:00.996Z,92.65
2023-03-08T04:00:29.071Z,94.17
2023-03-08T04:02:57.323Z,96.35
2023-03-08T04:05:25.733Z,95.74
2023-03-08T04:07:55.283Z,96.02
2023-03-08T04:10:23.506Z,95.92
2023-03-08T04:12:51.644Z,95.33
2023-03-08T04:15:19.701Z,96.12
2023-03-08T04:17:47.828Z,96.46
2023-03-08T04:20:15.961Z,97.77
2023-03-08T04:22:44.102Z,97.19
2023-03-08T04:25:13.692Z,98.12
2023-03-08T04:27:41.873Z,97.88
2023-03-08T04:30:11.310Z,97.81
2023-03-08T04:32:39.339Z,98.66
2023-03-08T04:35:07.914Z,99.36
2023-03-08T04:37:37.516Z,99.92
2023-03-08T04:40:09.496Z,99.94
2023-03-08T04:42:40.978Z,100.00
2023-03-08T04:45:10.086Z,99.89
2023-03-08T04:47:38.138Z,99.79
2023-03-08T04:50:06.718Z,100.00
2023-03-08T04:52:34.795Z,99.97
2023-03-08T04:55:03.224Z,98.69
2023-03-08T04:57:31.304Z,100.00
2023-03-08T05:00:00.720Z,100.00
2023-03-08T05:02:28.744Z,100.00
2023-03-08T05:04:56.821Z,99.94
2023-03-08T05:07:24.962Z,99.02
2023-03-08T05:09:53.056Z,98.09
2023-03-08T05:12:21.133Z,98.67
2023-03-08T05:14:49.198Z,99.05
2023-03-08T05:17:18.830Z,98.92
2023-03-08T05:19:47.013Z,100.00
2023-03-08T05:22:15.383Z,100.00
2023-03-08T05:24:43.526Z,99.05
2023-03-08T05:27:11.586Z,97.68
2023-03-08T05:29:39.829Z,96.23
2023-03-08T05:32:08.364Z,95.91
2023-03-08T05:34:38.180Z,95.18
2023-03-08T05:37:06.283Z,94.49
2023-03-08T05:39:34.199Z,94.39
2023-03-08T05:42:02.165Z,92.68
2023-03-08T05:44:30.787Z,93.04
2023-03-08T05:46:58.852Z,91.64
2023-03-08T05:49:26.995Z,90.48
2023-03-08T05:51:56.468Z,89.80
2023-03-08T05:54:24.586Z,87.69
2023-03-08T05:56:52.662Z,87.64
2023-03-08T05:59:20.799Z,85.90
2023-03-08T06:01:48.920Z,81.66
2023-03-08T06:04:16.902Z,77.29
2023-03-08T06:06:44.899Z,78.93
2023-03-08T06:09:14.194Z,74.71
2023-03-08T06:11:42.222Z,67.31
2023-03-08T06:14:12.170Z,68.42
2023-03-08T06:16:41.076Z,64.14
2023-03-08T06:19:09.142Z,65.43
2023-03-08T06:21:37.099Z,62.76
2023-03-08T06:24:05.044Z,60.47
2023-03-08T06:26:34.411Z,60.62
2023-03-08T06:29:02.326Z,60.77
2023-03-08T06:31:30.425Z,59.41
2023-03-08T06:33:58.330Z,59.08
2023-03-08T06:36:26.235Z,59.33
2023-03-08T06:38:54.191Z,59.91
2023-03-08T06:41:22.180Z,57.95
2023-03-08T06:43:51.501Z,57.30
2023-03-08T06:46:20.572Z,56.73
2023-03-08T06:48:49.550Z,55.16
2023-03-08T06:51:18.927Z,54.17
2023-03-08T06:53:47.429Z,55.15
2023-03-08T06:56:17.338Z,53.64
2023-03-08T06:58:45.420Z,54.10
2023-03-08T07:01:15.146Z,54.62
2023-03-08T07:03:45.395Z,53.34
2023-03-08T07:06:13.490Z,53.37
2023-03-08T07:08:42.188Z,51.99
2023-03-08T07:11:10.955Z,51.87
2023-03-08T07:13:39.677Z,52.45
2023-03-08T07:16:09.721Z,51.79
2023-03-08T07:18:39.842Z,51.37
2023-03-08T07:21:08.514Z,49.35
2023-03-08T07:23:36.631Z,48.33
2023-03-08T07:26:06.391Z,47.14
2023-03-08T07:28:34.737Z,47.00
2023-03-08T07:31:02.836Z,47.24
2023-03-08T07:33:30.974Z,47.52
2023-03-08T07:36:03.262Z,46.67
2023-03-08T07:38:31.812Z,47.15
2023-03-08T07:40:59.782Z,46.76
2023-03-08T07:43:30.104Z,47.21
2023-03-08T07:46:02.091Z,46.90
2023-03-08T07:48:30.665Z,47.46
2023-03-08T07:51:04.261Z,45.70
2023-03-08T07:53:33.134Z,46.62
2023-03-08T07:56:02.097Z,46.82
2023-03-08T07:58:30.728Z,45.54
2023-03-08T08:00:58.944Z,45.29
2023-03-08T08:03:27.148Z,45.68
2023-03-08T08:05:55.607Z,44.71
2023-03-08T08:08:25.046Z,45.12
2023-03-08T08:10:53.376Z,45.05
2023-03-08T08:13:21.443Z,44.94
2023-03-08T08:15:58.552Z,44.60
2023-03-08T08:18:26.565Z,42.62
2023-03-08T08:21:02.798Z,44.50
2023-03-08T08:23:33.488Z,43.80
2023-03-08T08:26:02.163Z,44.73
2023-03-08T08:28:30.517Z,43.31
2023-03-08T08:31:01.228Z,43.68
2023-03-08T08:33:29.877Z,44.26
2023-03-08T08:35:58.165Z,44.29
2023-03-08T08:38:26.753Z,45.16
2023-03-08T08:40:56.112Z,43.15
2023-03-08T08:43:24.157Z,43.18
2023-03-08T08:45:57.013Z,43.74
2023-03-08T08:48:25.436Z,43.63
2023-03-08T08:50:53.969Z,43.61
2023-03-08T08:53:23.133Z,44.38
2023-03-08T08:55:51.060Z,44.54
2023-03-08T08:58:20.634Z,43.15
2023-03-08T09:00:49.717Z,43.29
2023-03-08T09:03:18.206Z,43.39
2023-03-08T09:05:46.799Z,43.08
2023-03-08T09:08:14.780Z,43.43
2023-03-08T09:10:43.274Z,44.58
2023-03-08T09:13:13.286Z,41.91
2023-03-08T09:15:42.901Z,43.68
2023-03-08T09:18:10.947Z,43.95
2023-03-08T09:20:38.946Z,44.34
2023-03-08T09:23:08.646Z,43.91
2023-03-08T09:25:37.146Z,45.25
2023-03-08T09:28:05.474Z,43.72
2023-03-08T09:30:35.021Z,42.18
2023-03-08T09:33:04.788Z,43.63
2023-03-08T09:35:32.865Z,45.66
2023-03-08T09:38:02.084Z,44.32
2023-03-08T09:40:36.215Z,45.05
2023-03-08T09:43:08.440Z,42.65
2023-03-08T09:45:36.871Z,46.94
2023-03-08T09:48:13.893Z,42.19
2023-03-08T09:50:47.589Z,42.41
2023-03-08T09:53:24.499Z,41.07
2023-03-08T09:55:56.495Z,41.34
2023-03-08T09:58:33.308Z,42.14
2023-03-08T10:01:13.749Z,41.48
2023-03-08T10:03:58.169Z,40.97
2023-03-08T10:06:36.973Z,40.55
2023-03-08T10:09:13.936Z,41.99
2023-03-08T10:11:48.402Z,42.58
2023-03-08T10:14:20.993Z,44.04
2023-03-08T10:16:55.181Z,40.24
2023-03-08T10:19:30.212Z,41.16
2023-03-08T10:22:01.696Z,40.60
2023-03-08T10:24:36.336Z,42.00
2023-03-08T10:27:15.312Z,41.39
2023-03-08T10:29:49.752Z,42.71
2023-03-08T10:32:18.118Z,43.42
2023-03-08T10:34:48.226Z,43.46
2023-03-08T10:37:16.980Z,42.33
2023-03-08T10:39:54.914Z,42.95
2023-03-08T10:42:25.557Z,43.18
2023-03-08T10:44:56.760Z,44.15
2023-03-08T10:47:27.770Z,42.84
2023-03-08T10:50:15.512Z,42.96
2023-03-08T10:52:45.381Z,43.05
2023-03-08T10:55:16.250Z,42.47
2023-03-08T10:57:53.108Z,41.81
2023-03-08T11:00:35.233Z,42.36
2023-03-08T11:03:12.330Z,42.91
2023-03-08T11:05:51.924Z,42.52
2023-03-08T11:08:23.316Z,42.84
2023-03-08T11:11:02.086Z,40.53
2023-03-08T11:13:33.131Z,41.38
2023-03-08T11:16:20.329Z,39.51
2023-03-08T11:19:03.379Z,40.76
2023-03-08T11:21:44.902Z,41.44
2023-03-08T11:24:23.322Z,37.62
2023-03-08T11:27:05.693Z,39.58
2023-03-08T11:29:43.792Z,37.17
2023-03-08T11:32:29.603Z,37.66
2023-03-08T11:35:12.590Z,37.83
2023-03-08T11:37:47.751Z,35.51
2023-03-08T11:40:23.871Z,36.77
2023-03-08T11:43:13.785Z,38.02
2023-03-08T11:45:51.068Z,38.40
2023-03-08T11:48:49.495Z,38.23
2023-03-08T11:51:23.948Z,38.33
2023-03-08T11:54:05.568Z,37.43
2023-03-08T11:56:45.995Z,37.36
2023-03-08T11:59:25.203Z,36.62
2023-03-08T12:01:57.379Z,38.75
2023-03-08T12:04:32.571Z,37.97
2023-03-08T12:07:04.554Z,39.23
2023-03-08T12:09:40.453Z,38.24
2023-03-08T12:12:17.919Z,39.53
2023-03-08T12:14:53.031Z,38.72
2023-03-08T12:17:26.107Z,36.68
2023-03-08T12:19:54.634Z,37.09
2023-03-08T12:22:36.282Z,36.88
2023-03-08T12:25:14.931Z,38.36
2023-03-08T12:27:48.680Z,37.16
2023-03-08T12:30:31.057Z,38.25
2023-03-08T12:33:00.583Z,35.96
2023-03-08T12:35:32.425Z,34.15
2023-03-08T12:38:01.839Z,33.80
2023-03-08T12:40:39.202Z,36.13
2023-03-08T12:43:10.950Z,33.85
2023-03-08T12:45:40.352Z,35.15
2023-03-08T12:48:21.058Z,33.81
2023-03-08T12:51:00.377Z,33.27
2023-03-08T12:53:35.230Z,33.06
2023-03-08T12:56:08.438Z,34.59
2023-03-08T12:58:40.477Z,35.17
2023-03-08T13:01:24.936Z,34.76
2023-03-08T13:03:53.307Z,35.15
2023-03-08T13:06:55.358Z,35.82
2023-03-08T13:09:28.479Z,34.27
2023-03-08T13:12:03.262Z,34.87
2023-03-08T13:14:41.058Z,34.83
2023-03-08T13:17:34.815Z,33.98
2023-03-08T13:20:13.583Z,34.33
2023-03-08T13:22:51.680Z,34.59
2023-03-08T13:25:32.413Z,33.55
2023-03-08T13:28:06.285Z,33.54
2023-03-08T13:30:37.300Z,34.47
2023-03-08T13:33:09.630Z,34.60
2023-03-08T13:35:37.727Z,34.90
2023-03-08T13:38:05.879Z,36.48
2023-03-08T13:40:34.101Z,34.89
2023-03-08T13:43:05.838Z,35.42
2023-03-08T13:45:34.253Z,34.86
2023-03-08T13:48:07.817Z,33.86
2023-03-08T13:50:38.944Z,34.23
2023-03-08T13:53:11.752Z,34.38
2023-03-08T13:55:43.471Z,34.24
2023-03-08T13:58:21.673Z,37.20
2023-03-08T14:01:02.118Z,35.90
2023-03-08T14:03:32.580Z,36.43
2023-03-08T14:06:01.030Z,37.12
2023-03-08T14:08:29.652Z,34.43
2023-03-08T14:11:01.094Z,35.08
2023-03-08T14:13:33.530Z,36.63
2023-03-08T14:16:03.225Z,38.36
2023-03-08T14:18:34.662Z,36.59
2023-03-08T14:21:06.744Z,36.53
2023-03-08T14:23:41.364Z,38.79
2023-03-08T14:26:25.740Z,38.65
2023-03-08T14:29:12.167Z,38.99
2023-03-08T14:31:41.751Z,39.95
2023-03-08T14:34:21.232Z,39.72
2023-03-08T14:36:56.569Z,38.89
2023-03-08T14:39:27.076Z,38.88
2023-03-08T14:41:55.980Z,36.50
2023-03-08T14:44:28.454Z,36.63
2023-03-08T14:47:00.033Z,38.38
2023-03-08T14:49:30.528Z,37.31
2023-03-08T14:51:59.508Z,38.84
2023-03-08T14:54:33.766Z,37.50
2023-03-08T14:57:14.551Z,39.20
2023-03-08T14:59:45.256Z,37.84
2023-03-08T15:02:14.817Z,37.36
2023-03-08T15:04:43.764Z,38.59
2023-03-08T15:07:19.783Z,39.74
2023-03-08T15:09:48.438Z,41.46
2023-03-08T15:12:16.844Z,41.07
2023-03-08T15:14:46.599Z,40.27
2023-03-08T15:17:14.606Z,40.58
2023-03-08T15:19:43.349Z,40.06
2023-03-08T15:22:14.580Z,40.36
2023-03-08T15:24:42.900Z,40.14
2023-03-08T15:27:15.654Z,41.46
2023-03-08T15:29:45.533Z,40.97
2023-03-08T15:32:13.454Z,41.50
2023-03-08T15:34:42.251Z,43.13
2023-03-08T15:37:15.540Z,43.06
2023-03-08T15:39:43.722Z,43.40
2023-03-08T15:42:12.580Z,42.32
2023-03-08T15:44:40.659Z,42.32
2023-03-08T15:47:11.613Z,41.79
2023-03-08T15:49:39.683Z,42.80
2023-03-08T15:52:08.736Z,42.82
2023-03-08T15:54:37.210Z,44.67
2023-03-08T15:57:05.612Z,43.98
2023-03-08T15:59:33.804Z,45.41
2023-03-08T16:02:02.516Z,46.01
2023-03-08T16:04:32.521Z,43.78
2023-03-08T16:07:00.518Z,44.76
2023-03-08T16:09:28.627Z,44.92
2023-03-08T16:11:56.853Z,45.59
2023-03-08T16:14:24.832Z,44.37
2023-03-08T16:16:53.117Z,44.86
2023-03-08T16:19:21.984Z,45.39
2023-03-08T16:21:52.827Z,46.13
2023-03-08T16:24:20.804Z,46.62
2023-03-08T16:26:48.983Z,45.65
2023-03-08T16:29:17.390Z,46.43
2023-03-08T16:31:45.632Z,45.76
2023-03-08T16:34:14.619Z,47.34
2023-03-08T16:36:42.992Z,47.57
2023-03-08T16:39:12.567Z,47.64
2023-03-08T16:41:41.600Z,47.33
2023-03-08T16:44:19.638Z,48.34
2023-03-08T16:46:47.625Z,48.83
2023-03-08T16:49:16.679Z,50.01
2023-03-08T16:51:44.843Z,51.42
2023-03-08T16:54:14.968Z,52.39
2023-03-08T16:56:44.700Z,53.29
2023-03-08T16:59:14.899Z,53.44
2023-03-08T17:01:43.340Z,54.15
2023-03-08T17:04:11.941Z,55.34
2023-03-08T17:06:40.134Z,56.60
2023-03-08T17:09:08.147Z,57.72
2023-03-08T17:11:37.419Z,57.11
2023-03-08T17:14:08.140Z,57.39
2023-03-08T17:16:36.959Z,57.07
2023-03-08T17:19:07.068Z,56.33
2023-03-08T17:21:38.215Z,55.35
2023-03-08T17:24:08.417Z,55.71
2023-03-08T17:26:42.447Z,56.65
2023-03-08T17:29:10.789Z,56.89
2023-03-08T17:31:40.948Z,57.33
2023-03-08T17:34:09.240Z,56.49
2023-03-08T17:36:37.302Z,55.92
2023-03-08T17:39:05.370Z,56.75
2023-03-08T17:41:34.410Z,57.09
2023-03-08T17:44:04.023Z,57.03
2023-03-08T17:46:32.095Z,57.68
2023-03-08T17:49:00.138Z,58.89
2023-03-08T17:51:31.500Z,59.09
2023-03-08T17:54:01.215Z,59.06
2023-03-08T17:56:31.773Z,58.79
2023-03-08T17:59:01.562Z,58.57
2023-03-08T18:01:32.096Z,57.94
2023-03-08T18:04:00.439Z,56.43
2023-03-08T18:06:31.129Z,56.69
2023-03-08T18:09:00.844Z,55.97
2023-03-08T18:11:29.583Z,56.09
2023-03-08T18:13:58.153Z,56.96
2023-03-08T18:16:26.368Z,57.46
2023-03-08T18:18:55.755Z,56.88
2023-03-08T18:21:23.673Z,57.71
2023-03-08T18:23:54.686Z,56.37
2023-03-08T18:26:23.006Z,56.18
2023-03-08T18:28:51.196Z,57.03
2023-03-08T18:31:23.292Z,58.31
2023-03-08T18:33:54.614Z,60.38
2023-03-08T18:36:24.833Z,62.09
2023-03-08T18:38:52.785Z,60.44
2023-03-08T18:41:23.293Z,60.88
2023-03-08T18:43:52.129Z,60.97
2023-03-08T18:46:22.497Z,61.21
2023-03-08T18:48:52.097Z,61.66
2023-03-08T18:51:20.026Z,62.13
2023-03-08T18:53:49.465Z,61.32
2023-03-08T18:56:17.529Z,61.77
2023-03-08T18:58:45.462Z,61.43
2023-03-08T19:01:15.155Z,61.43
2023-03-08T19:03:44.353Z,60.78
2023-03-08T19:06:13.759Z,60.92
2023-03-08T19:08:42.031Z,61.22
2023-03-08T19:11:16.852Z,61.08
2023-03-08T19:13:45.061Z,61.27
2023-03-08T19:16:19.647Z,60.41
2023-03-08T19:18:48.037Z,60.11
2023-03-08T19:21:17.563Z,60.84
2023-03-08T19:23:45.631Z,61.99
2023-03-08T19:26:35.857Z,63.41
2023-03-08T19:29:05.642Z,64.22
2023-03-08T19:31:34.108Z,65.40
2023-03-08T19:34:02.716Z,66.94
2023-03-08T19:36:30.628Z,67.89
2023-03-08T19:38:58.640Z,68.70
2023-03-08T19:41:28.116Z,69.84
2023-03-08T19:43:56.032Z,69.72
2023-03-08T19:46:23.994Z,66.91
2023-03-08T19:48:52.316Z,65.52
2023-03-08T19:51:21.614Z,66.10
2023-03-08T19:53:49.552Z,67.08
2023-03-08T19:56:19.778Z,66.76
2023-03-08T19:58:49.779Z,66.72
2023-03-08T20:01:19.873Z,65.77
2023-03-08T20:03:48.489Z,66.51
2023-03-08T20:06:24.283Z,66.70
2023-03-08T20:08:53.215Z,67.43
2023-03-08T20:11:21.982Z,67.68
2023-03-08T20:13:51.752Z,67.92
2023-03-08T20:16:20.965Z,67.36
2023-03-08T20:18:50.352Z,66.80
2023-03-08T20:21:19.244Z,64.92
2023-03-08T20:23:51.022Z,63.76
2023-03-08T20:26:19.125Z,65.05
2023-03-08T20:28:47.147Z,65.76
2023-03-08T20:31:16.622Z,65.88
2023-03-08T20:33:45.207Z,66.78
2023-03-08T20:36:13.291Z,67.48
2023-03-08T20:38:41.727Z,66.71
2023-03-08T20:41:13.160Z,66.61
2023-03-08T20:43:41.204Z,66.01
2023-03-08T20:46:11.747Z,66.55
2023-03-08T20:48:44.608Z,66.13
2023-03-08T20:51:15.106Z,67.10
2023-03-08T20:53:43.414Z,66.72
2023-03-08T20:56:14.691Z,68.88
2023-03-08T20:58:43.285Z,72.05
2023-03-08T21:01:12.990Z,70.29
2023-03-08T21:03:43.136Z,68.87
2023-03-08T21:06:12.800Z,68.12
2023-03-08T21:08:40.889Z,69.64
2023-03-08T21:11:08.938Z,70.07
2023-03-08T21:13:37.158Z,67.92
2023-03-08T21:16:06.747Z,68.73
2023-03-08T21:18:34.794Z,69.86
2023-03-08T21:21:04.420Z,70.63
2023-03-08T21:23:32.450Z,68.85
2023-03-08T21:26:01.447Z,73.39
2023-03-08T21:28:29.518Z,75.12
2023-03-08T21:30:57.623Z,74.68
2023-03-08T21:33:25.573Z,70.85
2023-03-08T21:35:53.857Z,69.66
2023-03-08T21:38:24.758Z,69.45
2023-03-08T21:40:52.797Z,69.93
2023-03-08T21:43:20.833Z,69.43
2023-03-08T21:45:49.363Z,73.04
2023-03-08T21:48:17.265Z,69.69
2023-03-08T21:50:45.289Z,69.64
2023-03-08T21:53:13.612Z,69.33
2023-03-08T21:55:43.336Z,69.88
2023-03-08T21:58:11.252Z,69.38
2023-03-08T22:00:39.279Z,69.76
2023-03-08T22:03:07.277Z,70.12
2023-03-08T22:05:35.180Z,69.96
2023-03-08T22:08:03.178Z,70.19
2023-03-08T22:10:31.161Z,69.50
2023-03-08T22:13:00.939Z,70.12
2023-03-08T22:15:29.005Z,70.82
2023-03-08T22:17:57.297Z,71.90
2023-03-08T22:20:25.368Z,71.88
2023-03-08T22:22:53.416Z,71.18
2023-03-08T22:25:21.515Z,70.96
2023-03-08T22:27:49.791Z,70.54
2023-03-08T22:30:20.818Z,71.44
2023-03-08T22:32:48.992Z,72.13
2023-03-08T22:35:17.284Z,72.15
2023-03-08T22:37:45.819Z,72.02
2023-03-08T22:40:14.544Z,70.80
2023-03-08T22:42:42.450Z,70.51
2023-03-08T22:45:11.821Z,69.41
2023-03-08T22:47:41.273Z,70.23
2023-03-08T22:50:11.031Z,69.63
2023-03-08T22:52:39.142Z,69.16
2023-03-08T22:55:07.973Z,68.50
2023-03-08T22:57:38.204Z,68.61
2023-03-08T23:00:14.342Z,70.41
2023-03-08T23:02:45.115Z,70.45
2023-03-08T23:05:13.901Z,70.84
2023-03-08T23:07:41.863Z,71.16
2023-03-08T23:10:11.475Z,70.78
2023-03-08T23:12:39.769Z,69.10
2023-03-08T23:15:09.447Z,70.77
2023-03-08T23:17:37.456Z,72.06
2023-03-08T23:20:07.822Z,72.64
2023-03-08T23:22:35.727Z,73.99
2023-03-08T23:25:03.969Z,74.59
2023-03-08T23:27:31.971Z,75.74
2023-03-08T23:29:59.924Z,76.61
2023-03-08T23:32:28.016Z,79.93
2023-03-08T23:34:56.054Z,81.58
2023-03-08T23:37:25.553Z,77.39
2023-03-08T23:39:53.585Z,74.96
2023-03-08T23:42:21.535Z,74.54
2023-03-08T23:44:49.452Z,75.74
2023-03-08T23:47:17.847Z,76.28
2023-03-08T23:49:45.845Z,77.74
2023-03-08T23:52:13.717Z,79.08
2023-03-08T23:54:43.110Z,78.16
2023-03-08T23:57:11.018Z,77.60
2023-03-08T23:59:38.998Z,79.05
